Time;durP1;ratioP1;P1;durP2;ratioP2;P2;SDS_P1;SDS_P2;PMS_P1;PMS_P2;Temp;Humidity;BMP_temperature;BMP_pressure;BME280_temperature;BME280_humidity;BME280_pressure;Samples;Min_cycle;Max_cycle;Signal;HPM_P1;HPM_P2
2021/01/17 00:01:26;;;;;;;3.60;1.48;;;4.50;85.80;;;;;;4735433;30;20029;-80
2021/01/17 00:03:52;;;;;;;2.13;1.48;;;4.50;85.80;;;;;;4738915;30;20534;-79
2021/01/17 00:06:18;;;;;;;2.47;1.30;;;4.40;86.50;;;;;;4740127;30;20032;-80
2021/01/17 00:08:44;;;;;;;5.07;1.13;;;4.40;85.60;;;;;;4739987;30;20112;-79
2021/01/17 00:11:14;;;;;;;2.42;1.00;;;4.40;86.40;;;;;;4738723;30;20550;-80
2021/01/17 00:13:40;;;;;;;2.38;0.88;;;4.30;86.40;;;;;;4738812;30;20028;-80
2021/01/17 00:16:06;;;;;;;1.63;1.30;;;4.30;85.90;;;;;;4725729;30;20036;-80
2021/01/17 00:18:32;;;;;;;1.90;0.90;;;4.30;86.10;;;;;;4736630;30;20029;-80
2021/01/17 00:20:58;;;;;;;3.60;0.90;;;4.30;86.20;;;;;;4733940;30;20069;-80
2021/01/17 00:23:24;;;;;;;2.05;1.00;;;4.20;87.10;;;;;;4734446;30;20033;-80
2021/01/17 00:25:51;;;;;;;3.40;1.10;;;4.20;87.20;;;;;;4739742;30;20098;-79
2021/01/17 00:28:17;;;;;;;2.63;1.15;;;4.20;87.70;;;;;;4742314;30;20035;-79
2021/01/17 00:30:43;;;;;;;2.33;1.10;;;4.20;87.30;;;;;;4742624;30;20064;-79
2021/01/17 00:33:09;;;;;;;1.50;1.30;;;4.10;87.40;;;;;;4737289;30;20386;-80
2021/01/17 00:35:35;;;;;;;1.48;1.10;;;4.10;87.50;;;;;;4740469;30;20036;-80
2021/01/17 00:38:03;;;;;;;4.32;1.05;;;4.10;88.10;;;;;;4737038;30;20043;-80
2021/01/17 00:40:29;;;;;;;1.63;1.00;;;4.10;88.20;;;;;;4748549;30;20398;-79
2021/01/17 00:42:55;;;;;;;2.60;1.10;;;4.10;88.20;;;;;;4748110;30;20040;-80
2021/01/17 00:45:25;;;;;;;3.50;1.35;;;4.20;88.60;;;;;;4736870;30;20032;-79
2021/01/17 08:13:30;;;;;;;7.57;3.70;;;4.20;99.90;;;;;;4739568;24;22152;-78
2021/01/17 08:16:09;;;;;;;7.53;3.70;;;4.50;99.90;;;;;;4728941;30;20049;-78
2021/01/17 08:18:39;;;;;;;6.18;2.65;;;4.70;99.90;;;;;;4727423;30;20397;-79
2021/01/17 08:21:17;;;;;;;4.28;2.83;;;4.80;99.90;;;;;;4714108;30;20397;-79
2021/01/17 08:24:11;;;;;;;5.45;3.20;;;4.90;99.50;;;;;;4729011;30;20098;-79
2021/01/17 08:27:01;;;;;;;7.00;2.85;;;4.90;99.90;;;;;;4714998;30;20080;-79
2021/01/17 08:29:28;;;;;;;4.90;2.47;;;4.90;99.90;;;;;;4715011;30;20114;-79
2021/01/17 08:31:54;;;;;;;7.10;3.17;;;4.90;99.90;;;;;;4732647;30;20041;-78
2021/01/17 08:34:26;;;;;;;5.30;2.45;;;4.90;99.90;;;;;;4728493;30;20106;-80
2021/01/17 08:36:54;;;;;;;7.50;2.88;;;4.90;99.90;;;;;;4725376;30;20099;-78
2021/01/17 08:39:48;;;;;;;8.52;2.70;;;4.90;99.90;;;;;;4708429;30;20114;-80
2021/01/17 08:42:28;;;;;;;5.32;2.22;;;5.00;99.90;;;;;;4716158;30;20045;-78
2021/01/17 08:44:55;;;;;;;3.78;2.47;;;5.20;99.90;;;;;;4720911;30;20120;-80
2021/01/17 08:47:22;;;;;;;9.13;2.60;;;5.20;99.90;;;;;;4729419;30;20068;-78
2021/01/17 08:49:49;;;;;;;5.53;2.20;;;5.20;99.80;;;;;;4728681;30;20092;-80
2021/01/17 08:52:27;;;;;;;3.25;1.75;;;5.20;99.70;;;;;;4729240;30;20044;-79
2021/01/17 08:54:53;;;;;;;2.22;1.40;;;5.30;99.90;;;;;;4727564;30;20036;-78
2021/01/17 08:57:39;;;;;;;3.58;2.28;;;5.30;99.90;;;;;;4727754;30;20040;-79
2021/01/17 09:00:45;;;;;;;3.45;2.47;;;5.20;99.80;;;;;;4732344;30;20566;-79
2021/01/17 09:03:31;;;;;;;3.75;1.98;;;5.10;99.90;;;;;;4713937;30;21024;-80
2021/01/17 09:06:05;;;;;;;5.50;2.42;;;5.20;99.90;;;;;;4727398;30;20054;-79
2021/01/17 09:08:33;;;;;;;2.40;2.20;;;5.40;99.90;;;;;;4713904;30;20055;-79
2021/01/17 09:11:00;;;;;;;3.40;2.15;;;5.60;98.50;;;;;;4729385;30;20910;-80
2021/01/17 09:13:29;;;;;;;5.53;2.17;;;5.70;97.80;;;;;;4730199;30;20040;-79
2021/01/17 09:16:09;;;;;;;5.47;2.70;;;5.80;97.90;;;;;;4716804;30;20064;-79
2021/01/17 09:18:37;;;;;;;4.75;2.05;;;5.80;97.30;;;;;;4731482;30;20051;-79
2021/01/17 09:21:06;;;;;;;3.72;1.75;;;5.80;97.30;;;;;;4718957;30;20101;-78
2021/01/17 09:23:37;;;;;;;3.83;1.75;;;5.80;96.90;;;;;;4703562;30;20044;-79
2021/01/17 09:26:05;;;;;;;3.20;1.98;;;6.00;97.70;;;;;;4723844;30;20048;-78
2021/01/17 09:28:31;;;;;;;4.43;2.15;;;6.00;95.30;;;;;;4731645;30;20055;-79
2021/01/17 09:31:00;;;;;;;4.90;2.00;;;6.20;96.60;;;;;;4731171;30;20383;-78
2021/01/17 09:33:35;;;;;;;3.35;1.33;;;6.30;95.70;;;;;;4730606;30;20036;-79
2021/01/17 09:36:02;;;;;;;3.50;1.70;;;6.30;95.30;;;;;;4732683;30;20040;-79
2021/01/17 09:38:31;;;;;;;3.78;1.65;;;6.30;95.40;;;;;;4731295;30;20032;-79
2021/01/17 09:40:57;;;;;;;2.55;1.85;;;6.30;95.10;;;;;;4712428;30;20036;-79
2021/01/17 09:43:24;;;;;;;3.65;1.90;;;6.30;94.80;;;;;;4723960;30;20040;-78
2021/01/17 09:45:56;;;;;;;3.25;1.63;;;6.30;94.50;;;;;;4725654;30;20041;-79
2021/01/17 09:48:24;;;;;;;4.50;2.10;;;6.30;94.60;;;;;;4721353;30;20144;-79
2021/01/17 09:50:51;;;;;;;3.30;1.67;;;6.50;93.90;;;;;;4728881;30;20569;-79
2021/01/17 09:53:19;;;;;;;4.47;1.85;;;6.60;94.40;;;;;;4731184;30;20073;-79
2021/01/17 09:55:47;;;;;;;3.38;1.85;;;6.80;93.70;;;;;;4729748;30;20142;-79
2021/01/17 09:58:15;;;;;;;6.28;1.80;;;6.80;93.70;;;;;;4716749;30;20064;-80
2021/01/17 10:00:43;;;;;;;3.90;1.98;;;6.70;94.10;;;;;;4735226;30;20052;-78
2021/01/17 10:03:14;;;;;;;2.78;1.60;;;6.60;94.10;;;;;;4732440;30;20411;-79
2021/01/17 10:05:42;;;;;;;6.50;2.65;;;6.60;94.30;;;;;;4730227;30;20397;-78
2021/01/17 10:08:11;;;;;;;5.13;2.28;;;6.60;94.10;;;;;;4729386;30;20355;-79
2021/01/17 10:10:59;;;;;;;3.63;1.40;;;6.60;94.80;;;;;;4725453;30;20442;-79
2021/01/17 10:14:35;;;;;;;5.32;2.58;;;6.60;94.30;;;;;;4741997;30;20057;-80
2021/01/17 10:17:39;;;;;;;2.80;1.92;;;6.40;94.00;;;;;;4731703;30;20051;-79
2021/01/17 10:20:38;;;;;;;2.53;1.35;;;6.40;94.30;;;;;;4716367;30;20041;-79
2021/01/17 10:26:27;;;;;;;4.82;1.98;;;6.30;93.60;;;;;;4724193;30;20044;-80
2021/01/17 10:28:55;;;;;;;3.50;1.73;;;6.30;93.60;;;;;;4725611;30;20059;-79
2021/01/17 10:31:23;;;;;;;4.22;2.70;;;6.30;93.70;;;;;;4730545;30;20035;-79
2021/01/17 10:33:50;;;;;;;5.05;3.25;;;6.50;94.10;;;;;;4733743;30;20050;-80
2021/01/17 10:36:37;;;;;;;7.70;2.10;;;6.90;93.30;;;;;;4736037;30;20036;-79
2021/01/17 10:39:34;;;;;;;4.32;2.78;;;7.40;93.20;;;;;;4734018;30;20380;-80
2021/01/17 10:42:26;;;;;;;4.40;2.38;;;7.80;92.10;;;;;;4733429;30;20057;-80
2021/01/17 10:45:02;;;;;;;5.35;2.33;;;7.80;92.10;;;;;;4736980;30;20044;-80
2021/01/17 10:47:46;;;;;;;6.70;2.50;;;8.00;91.40;;;;;;4737274;30;20070;-81
2021/01/17 10:50:23;;;;;;;;;;;8.00;91.00;;;;;;4729364;30;20040;-80
2021/01/17 10:53:11;;;;;;;8.32;2.10;;;7.90;90.80;;;;;;4726296;30;19919;-79
2021/01/17 10:55:39;;;;;;;5.20;1.70;;;7.70;91.60;;;;;;4720574;30;20099;-79
2021/01/17 10:58:07;;;;;;;1.77;1.30;;;7.70;90.50;;;;;;4726510;30;20059;-80
2021/01/17 11:00:33;;;;;;;3.63;1.42;;;8.10;90.20;;;;;;4728166;30;20056;-80
2021/01/17 11:03:02;;;;;;;3.88;1.45;;;8.20;89.50;;;;;;4729981;30;20041;-79
2021/01/17 11:05:28;;;;;;;2.67;1.65;;;8.20;90.80;;;;;;4714779;30;20060;-80
2021/01/17 11:07:54;;;;;;;2.70;1.25;;;8.30;88.80;;;;;;4731714;30;20040;-80
2021/01/17 11:10:21;;;;;;;2.35;0.90;;;8.40;88.10;;;;;;4730237;30;20028;-79
2021/01/17 11:12:47;;;;;;;4.82;1.20;;;8.50;87.90;;;;;;4731042;30;20584;-79
2021/01/17 11:15:21;;;;;;;2.58;1.23;;;8.70;86.60;;;;;;4714859;30;20576;-80
2021/01/17 11:17:58;;;;;;;4.20;2.67;;;8.50;86.80;;;;;;4715130;30;20029;-80
2021/01/17 11:20:30;;;;;;;2.92;1.80;;;8.50;87.10;;;;;;4730834;30;20040;-80
2021/01/17 11:23:03;;;;;;;3.65;1.80;;;8.60;87.30;;;;;;4727854;30;20043;-81
2021/01/17 11:25:29;;;;;;;17.15;8.02;;;8.50;88.00;;;;;;4729495;30;20109;-80
2021/01/17 11:28:03;;;;;;;138.18;55.25;;;8.30;87.50;;;;;;4730523;30;20094;-80
2021/01/17 11:30:31;;;;;;;58.90;29.92;;;8.40;87.20;;;;;;4728516;30;20051;-80
2021/01/17 11:33:08;;;;;;;21.80;10.60;;;8.70;87.30;;;;;;4729361;30;20248;-80
2021/01/17 11:35:34;;;;;;;9.25;6.75;;;9.20;86.30;;;;;;4729388;30;20444;-80
2021/01/17 11:38:01;;;;;;;5.93;3.97;;;9.60;83.30;;;;;;4713692;30;20427;-91
2021/01/17 11:40:27;;;;;;;3.60;1.45;;;9.90;82.00;;;;;;4715207;30;20098;-86
2021/01/17 11:43:13;;;;;;;2.08;1.02;;;10.10;83.80;;;;;;4716175;30;20035;-88
2021/01/17 11:45:44;;;;;;;1.63;1.30;;;9.90;82.10;;;;;;4714008;30;20064;-84
2021/01/17 11:48:12;;;;;;;2.20;1.33;;;9.50;81.40;;;;;;4729974;30;20499;-81
2021/01/17 11:50:46;;;;;;;3.50;2.05;;;9.30;83.20;;;;;;4727307;30;20033;-81
2021/01/17 11:53:13;;;;;;;3.60;2.45;;;9.10;83.20;;;;;;4731795;30;20036;-81
2021/01/17 11:55:40;;;;;;;6.32;3.67;;;9.10;82.40;;;;;;4728324;30;20044;-81
2021/01/17 11:58:13;;;;;;;1.70;1.17;;;9.30;83.20;;;;;;4727799;30;20124;-81
2021/01/17 12:00:55;;;;;;;7.15;4.45;;;9.40;82.20;;;;;;4714265;30;20572;-81
2021/01/17 12:03:30;;;;;;;3.50;2.83;;;9.20;81.60;;;;;;4736825;30;20045;-80
2021/01/17 12:06:17;;;;;;;6.15;3.08;;;8.90;81.30;;;;;;4727694;30;21151;-80
2021/01/17 12:09:08;;;;;;;8.75;3.67;;;8.90;82.20;;;;;;4729794;30;20054;-80
2021/01/17 12:11:36;;;;;;;2.42;1.38;;;9.00;82.00;;;;;;4727710;30;20036;-80
2021/01/17 12:14:15;;;;;;;2.17;1.15;;;8.80;83.30;;;;;;4713949;30;20033;-80
2021/01/17 12:16:50;;;;;;;3.83;2.22;;;8.90;83.30;;;;;;4722809;30;20088;-80
2021/01/17 12:19:17;;;;;;;3.03;1.80;;;8.60;83.40;;;;;;4707344;30;20103;-80
2021/01/17 12:21:45;;;;;;;3.58;1.90;;;8.60;83.40;;;;;;4726239;30;20039;-81
2021/01/17 12:24:13;;;;;;;1.88;1.40;;;8.30;84.50;;;;;;4706547;30;20037;-80
2021/01/17 12:26:41;;;;;;;3.95;1.73;;;8.20;85.10;;;;;;4717367;30;20525;-81
2021/01/17 12:29:08;;;;;;;3.90;2.33;;;8.10;85.40;;;;;;4722948;30;20036;-80
2021/01/17 12:31:34;;;;;;;4.72;1.77;;;8.20;86.20;;;;;;4705138;30;20053;-80
2021/01/17 12:34:01;;;;;;;3.03;1.67;;;8.30;85.90;;;;;;4729000;30;20116;-81
2021/01/17 12:36:29;;;;;;;3.95;2.03;;;8.50;85.80;;;;;;4730706;30;20032;-79
2021/01/17 12:38:56;;;;;;;3.40;2.60;;;8.40;86.30;;;;;;4713260;30;20043;-80
2021/01/17 12:41:28;;;;;;;3.30;1.95;;;8.40;86.00;;;;;;4728327;30;20131;-81
2021/01/17 12:43:57;;;;;;;3.30;1.40;;;8.30;83.90;;;;;;4728465;30;20037;-80
2021/01/17 12:46:25;;;;;;;4.40;1.58;;;8.60;84.60;;;;;;4727832;30;21127;-80
2021/01/17 12:48:52;;;;;;;1.80;1.60;;;8.70;83.60;;;;;;4730338;30;20044;-80
2021/01/17 12:51:18;;;;;;;1.63;0.95;;;8.80;83.40;;;;;;4716658;30;20039;-80
2021/01/17 12:53:47;;;;;;;1.65;1.30;;;8.60;82.60;;;;;;4730420;30;20086;-80
2021/01/17 12:56:14;;;;;;;3.05;1.60;;;8.60;82.90;;;;;;4709753;30;20037;-80
2021/01/17 12:58:41;;;;;;;3.22;1.90;;;8.60;83.00;;;;;;4729205;30;20520;-80
2021/01/17 13:01:07;;;;;;;2.85;2.05;;;8.60;83.70;;;;;;4741378;30;20037;-80
2021/01/17 13:03:33;;;;;;;1.10;0.80;;;8.40;82.90;;;;;;4715567;30;20036;-80
2021/01/17 13:06:01;;;;;;;2.72;1.30;;;8.30;82.50;;;;;;4732932;30;20059;-80
2021/01/17 13:08:27;;;;;;;2.08;1.08;;;8.00;83.50;;;;;;4718761;30;20055;-80
2021/01/17 13:10:53;;;;;;;4.50;2.60;;;7.90;84.40;;;;;;4716702;30;20036;-81
2021/01/17 13:13:19;;;;;;;8.75;3.28;;;7.70;86.40;;;;;;4731744;30;20630;-80
2021/01/17 13:15:52;;;;;;;5.13;2.35;;;7.50;85.60;;;;;;4730890;30;20139;-80
2021/01/17 13:18:18;;;;;;;2.70;1.50;;;7.50;86.40;;;;;;4732505;30;20041;-80
2021/01/17 13:20:46;;;;;;;2.78;1.55;;;7.60;87.10;;;;;;4730087;30;20071;-81
2021/01/17 13:23:12;;;;;;;1.67;1.30;;;7.70;87.10;;;;;;4708604;30;20061;-80
2021/01/17 13:25:41;;;;;;;3.80;1.63;;;7.70;85.80;;;;;;4730574;30;20096;-80
2021/01/17 13:28:08;;;;;;;3.53;2.03;;;7.80;85.40;;;;;;4732227;30;20052;-80
2021/01/17 13:30:35;;;;;;;1.13;0.85;;;7.90;85.60;;;;;;4730347;30;20068;-80
2021/01/17 13:33:05;;;;;;;3.50;2.15;;;7.80;85.30;;;;;;4731568;30;20028;-81
2021/01/17 13:35:32;;;;;;;2.40;1.27;;;7.70;85.50;;;;;;4726887;30;20433;-82
2021/01/17 13:37:59;;;;;;;1.95;1.40;;;7.60;85.90;;;;;;4733961;30;20156;-81
2021/01/17 13:40:25;;;;;;;4.28;1.65;;;7.60;85.40;;;;;;4729179;30;20040;-80
2021/01/17 13:42:51;;;;;;;2.30;1.30;;;7.60;85.20;;;;;;4731145;30;20371;-81
2021/01/17 13:45:18;;;;;;;1.52;1.05;;;7.60;85.60;;;;;;4714020;30;20037;-80
2021/01/17 13:47:45;;;;;;;6.45;3.47;;;7.50;86.20;;;;;;4731325;30;20433;-79
2021/01/17 13:50:11;;;;;;;4.50;2.10;;;7.50;87.00;;;;;;4715818;30;20028;-81
2021/01/17 13:52:45;;;;;;;4.28;2.38;;;7.60;87.80;;;;;;4737949;30;20036;-79
2021/01/17 13:55:11;;;;;;;;;;;7.60;86.50;;;;;;4732645;30;20459;-81
2021/01/17 13:57:38;;;;;;;5.93;3.25;;;7.70;86.10;;;;;;4720812;30;19922;-82
2021/01/17 14:00:06;;;;;;;6.82;3.17;;;7.70;85.90;;;;;;4717392;30;20438;-82
2021/01/17 14:02:33;;;;;;;4.03;2.55;;;7.90;86.00;;;;;;4710565;30;20065;-81
2021/01/17 14:04:59;;;;;;;9.68;3.40;;;8.00;86.60;;;;;;4732133;30;20041;-80
2021/01/17 14:07:25;;;;;;;6.43;3.97;;;8.20;86.40;;;;;;4734013;30;20040;-80
2021/01/17 14:09:52;;;;;;;8.77;4.10;;;8.30;86.70;;;;;;4734554;30;20037;-81
2021/01/17 14:12:18;;;;;;;6.75;3.35;;;8.40;86.30;;;;;;4750304;30;20036;-82
2021/01/17 14:14:45;;;;;;;11.98;5.43;;;8.40;85.70;;;;;;4728778;30;20064;-80
2021/01/17 14:17:11;;;;;;;12.98;7.85;;;8.40;85.90;;;;;;4739763;30;20398;-81
2021/01/17 14:19:38;;;;;;;11.32;6.53;;;8.40;85.80;;;;;;4718280;30;20037;-93
2021/01/17 14:22:04;;;;;;;12.90;6.20;;;8.40;85.60;;;;;;4728775;30;20037;-82
2021/01/17 14:24:30;;;;;;;13.27;8.20;;;8.40;85.90;;;;;;4741050;30;20394;-83
2021/01/17 14:26:57;;;;;;;16.55;9.68;;;8.40;84.30;;;;;;4713990;30;20860;-84
2021/01/17 14:29:24;;;;;;;20.13;10.80;;;8.40;85.30;;;;;;4700858;30;20037;-84
2021/01/17 14:31:51;;;;;;;19.50;9.82;;;8.40;85.40;;;;;;4724972;30;20041;-83
2021/01/17 14:34:18;;;;;;;16.80;8.15;;;8.30;85.00;;;;;;4724851;30;20059;-82
2021/01/17 14:36:46;;;;;;;16.65;8.48;;;8.20;84.70;;;;;;4726194;30;20077;-82
2021/01/17 14:39:20;;;;;;;13.85;7.53;;;8.20;85.30;;;;;;4732261;30;20032;-82
2021/01/17 14:41:54;;;;;;;10.35;6.35;;;8.20;86.30;;;;;;4725708;30;20044;-81
2021/01/17 14:44:20;;;;;;;10.35;6.05;;;8.10;86.00;;;;;;4750500;30;20033;-81
2021/01/17 14:46:49;;;;;;;10.93;4.75;;;8.10;88.00;;;;;;4732673;30;20482;-81
2021/01/17 14:49:16;;;;;;;9.07;5.65;;;8.00;90.10;;;;;;4709958;30;20045;-81
2021/01/17 14:51:43;;;;;;;8.98;4.55;;;7.90;90.80;;;;;;4722611;30;20090;-82
2021/01/17 14:54:10;;;;;;;10.35;5.93;;;7.90;91.00;;;;;;4731537;30;20044;-81
2021/01/17 14:56:44;;;;;;;7.90;4.80;;;7.90;91.40;;;;;;4731220;30;20372;-82
2021/01/17 14:59:12;;;;;;;11.00;5.68;;;7.80;91.50;;;;;;4732608;30;20029;-82
2021/01/17 15:01:40;;;;;;;7.70;4.97;;;7.80;91.50;;;;;;4731889;30;20044;-81
2021/01/17 15:04:07;;;;;;;13.73;5.95;;;7.70;91.60;;;;;;4730942;30;20128;-81
2021/01/17 15:06:33;;;;;;;8.15;3.97;;;7.70;91.80;;;;;;4730716;30;20035;-82
2021/01/17 15:08:59;;;;;;;6.97;3.40;;;7.70;92.00;;;;;;4731237;30;20090;-81
2021/01/17 15:11:26;;;;;;;7.70;2.97;;;7.70;92.20;;;;;;4712326;30;20037;-81
2021/01/17 15:13:54;;;;;;;4.43;2.10;;;7.70;92.30;;;;;;4745966;30;20044;-82
2021/01/17 15:16:23;;;;;;;3.55;2.08;;;7.70;92.40;;;;;;4729160;30;20087;-81
2021/01/17 15:18:53;;;;;;;2.67;1.55;;;7.60;92.60;;;;;;4731241;30;20076;-82
2021/01/17 15:21:20;;;;;;;4.45;1.35;;;7.60;92.70;;;;;;4731226;30;20108;-81
2021/01/17 15:23:47;;;;;;;2.78;1.50;;;7.60;92.80;;;;;;4724818;30;20603;-81
2021/01/17 15:26:15;;;;;;;2.63;1.70;;;7.50;92.90;;;;;;4717832;30;20064;-82
2021/01/17 15:28:41;;;;;;;4.93;2.28;;;7.50;92.90;;;;;;4730972;30;20076;-81
2021/01/17 15:31:07;;;;;;;3.03;1.65;;;7.50;93.00;;;;;;4716442;30;20499;-81
2021/01/17 15:33:33;;;;;;;2.92;1.88;;;7.40;93.20;;;;;;4714303;30;20037;-84
2021/01/17 15:36:09;;;;;;;3.22;2.00;;;7.40;93.40;;;;;;4732432;30;20553;-83
2021/01/17 15:38:38;;;;;;;7.00;2.40;;;7.40;93.40;;;;;;4731579;30;20078;-83
2021/01/17 15:41:04;;;;;;;9.60;4.60;;;7.40;93.40;;;;;;4727621;30;20047;-81
2021/01/17 15:43:30;;;;;;;15.82;6.88;;;7.30;93.60;;;;;;4720405;30;20037;-81
2021/01/17 15:45:57;;;;;;;15.23;6.72;;;7.30;93.40;;;;;;4732153;30;20137;-82
2021/01/17 15:48:23;;;;;;;8.43;4.90;;;7.30;93.70;;;;;;4729594;30;20052;-81
2021/01/17 15:50:50;;;;;;;8.63;3.10;;;7.30;93.40;;;;;;4730224;30;20064;-82
2021/01/17 15:53:16;;;;;;;6.78;2.53;;;7.30;93.10;;;;;;4732215;30;20523;-82
2021/01/17 15:55:42;;;;;;;2.67;1.58;;;7.30;92.70;;;;;;4713643;30;20033;-82
2021/01/17 15:58:08;;;;;;;5.35;2.22;;;7.30;92.20;;;;;;4713208;30;20388;-81
2021/01/17 16:00:34;;;;;;;7.82;3.42;;;7.30;92.00;;;;;;4713057;30;20040;-82
2021/01/17 16:03:00;;;;;;;7.40;3.88;;;7.20;92.30;;;;;;4725023;30;20442;-82
2021/01/17 16:05:26;;;;;;;9.13;3.78;;;7.20;92.50;;;;;;4732971;30;20379;-81
2021/01/17 16:07:53;;;;;;;5.93;2.92;;;7.20;92.70;;;;;;4729280;30;20048;-84
2021/01/17 16:10:20;;;;;;;4.57;2.53;;;7.20;92.90;;;;;;4707416;30;20115;-80
2021/01/17 16:12:47;;;;;;;4.65;2.65;;;7.20;93.10;;;;;;4721443;30;20037;-81
2021/01/17 16:15:13;;;;;;;3.90;2.75;;;7.30;93.10;;;;;;4728198;30;20048;-81
2021/01/17 16:17:41;;;;;;;6.28;2.97;;;7.20;93.10;;;;;;4729351;30;20041;-81
2021/01/17 16:20:09;;;;;;;5.00;2.58;;;7.20;93.20;;;;;;4728246;30;20036;-81
2021/01/17 16:22:35;;;;;;;7.05;3.05;;;7.20;93.30;;;;;;4725951;30;20040;-80
2021/01/17 16:25:03;;;;;;;4.07;2.55;;;7.20;93.80;;;;;;4726638;30;20613;-87
2021/01/17 16:27:50;;;;;;;4.85;2.80;;;7.20;93.90;;;;;;4720762;30;20053;-79
2021/01/17 16:30:22;;;;;;;5.35;3.22;;;7.20;93.80;;;;;;4727552;30;20479;-78
2021/01/17 16:32:48;;;;;;;4.50;3.30;;;7.20;93.50;;;;;;4731051;30;20044;-79
2021/01/17 16:35:15;;;;;;;10.98;4.63;;;7.20;93.40;;;;;;4714891;30;20037;-81
2021/01/17 16:37:44;;;;;;;10.20;5.88;;;7.20;93.30;;;;;;4730009;30;20459;-80
2021/01/17 16:40:12;;;;;;;12.40;5.68;;;7.10;93.30;;;;;;4730916;30;20040;-80
2021/01/17 16:42:39;;;;;;;14.18;7.30;;;7.10;93.60;;;;;;4730808;30;20115;-80
2021/01/17 16:45:06;;;;;;;18.50;9.50;;;7.10;93.70;;;;;;4712559;30;20638;-79
2021/01/17 16:47:36;;;;;;;26.70;10.63;;;7.20;93.70;;;;;;4732463;30;20055;-80
2021/01/17 16:50:04;;;;;;;23.08;11.43;;;7.10;93.60;;;;;;4730847;30;20056;-79
2021/01/17 16:52:31;;;;;;;24.33;12.13;;;7.20;93.70;;;;;;4729218;30;20450;-79
2021/01/17 16:54:57;;;;;;;22.95;12.43;;;7.20;94.00;;;;;;4729917;30;20033;-80
2021/01/17 16:57:25;;;;;;;29.00;13.23;;;7.20;94.10;;;;;;4729884;30;20079;-78
2021/01/17 16:59:51;;;;;;;26.30;13.95;;;7.20;94.30;;;;;;4725975;30;20482;-81
2021/01/17 17:02:17;;;;;;;26.38;13.25;;;7.20;94.30;;;;;;4718570;30;20087;-79
2021/01/17 17:04:43;;;;;;;26.17;11.75;;;7.20;94.50;;;;;;4720893;30;20029;-78
2021/01/17 17:07:11;;;;;;;26.48;13.68;;;7.20;94.70;;;;;;4727997;30;20040;-78
2021/01/17 17:09:38;;;;;;;23.73;11.93;;;7.30;94.70;;;;;;4730692;30;20120;-78
2021/01/17 17:12:05;;;;;;;21.52;10.88;;;7.30;94.70;;;;;;4730442;30;20036;-78
2021/01/17 17:14:31;;;;;;;18.55;9.77;;;7.30;94.80;;;;;;4728899;30;20040;-78
2021/01/17 17:16:58;;;;;;;15.85;9.18;;;7.30;94.90;;;;;;4730996;30;20051;-78
2021/01/17 17:19:25;;;;;;;17.90;10.60;;;7.30;94.80;;;;;;4729287;30;20127;-78
2021/01/17 17:21:52;;;;;;;21.25;12.55;;;7.30;94.80;;;;;;4722964;30;20045;-78
2021/01/17 17:24:18;;;;;;;24.85;13.10;;;7.30;94.70;;;;;;4726422;30;20036;-78
2021/01/17 17:26:45;;;;;;;23.10;11.57;;;7.30;94.50;;;;;;4717271;30;20076;-79
2021/01/17 17:29:13;;;;;;;19.80;11.60;;;7.30;94.50;;;;;;4727670;30;20044;-79
2021/01/17 17:31:48;;;;;;;17.27;11.05;;;7.30;94.80;;;;;;4729096;30;20060;-79
2021/01/17 17:34:17;;;;;;;24.30;13.32;;;7.30;94.80;;;;;;4725931;30;20043;-80
2021/01/17 17:36:45;;;;;;;18.40;9.40;;;7.30;94.80;;;;;;4725492;30;20094;-79
2021/01/17 17:39:23;;;;;;;18.08;8.77;;;7.20;94.30;;;;;;4720443;30;20490;-79
2021/01/17 17:41:49;;;;;;;14.90;8.32;;;7.20;94.60;;;;;;4733390;30;20490;-78
2021/01/17 17:44:16;;;;;;;15.32;9.13;;;7.30;94.90;;;;;;4732533;30;20033;-79
2021/01/17 17:46:45;;;;;;;19.48;10.77;;;7.20;94.60;;;;;;4732235;30;20041;-79
2021/01/17 17:49:11;;;;;;;19.02;10.85;;;7.30;94.40;;;;;;4732246;30;20478;-79
2021/01/17 17:51:38;;;;;;;24.90;13.70;;;7.30;94.00;;;;;;4732311;30;20112;-80
2021/01/17 17:54:07;;;;;;;23.38;13.20;;;7.20;94.20;;;;;;4723818;30;20467;-80
2021/01/17 17:56:35;;;;;;;22.23;12.10;;;7.20;94.10;;;;;;4732032;30;20036;-79
2021/01/17 17:59:01;;;;;;;19.85;11.68;;;7.20;94.00;;;;;;4717194;30;20041;-81
2021/01/17 18:01:27;;;;;;;19.00;10.75;;;7.20;94.40;;;;;;4717747;30;20036;-80
2021/01/17 18:03:53;;;;;;;10.55;5.95;;;7.30;94.50;;;;;;4722952;30;20036;-80
2021/01/17 18:06:20;;;;;;;7.30;3.88;;;7.30;94.40;;;;;;4733140;30;20051;-81
2021/01/17 18:08:46;;;;;;;3.72;2.40;;;7.20;94.40;;;;;;4732985;30;20066;-80
2021/01/17 18:11:12;;;;;;;2.67;1.73;;;7.20;94.00;;;;;;4716911;30;20040;-80
2021/01/17 18:13:40;;;;;;;2.00;1.42;;;7.20;94.10;;;;;;4731446;30;20037;-81
2021/01/17 18:16:08;;;;;;;1.95;1.38;;;7.20;94.30;;;;;;4732758;30;20048;-81
2021/01/17 18:18:35;;;;;;;3.05;1.48;;;7.20;94.70;;;;;;4732555;30;20075;-79
2021/01/17 18:21:01;;;;;;;5.28;2.25;;;7.20;95.20;;;;;;4732682;30;20506;-80
2021/01/17 18:23:29;;;;;;;2.92;1.70;;;7.20;95.70;;;;;;4733094;30;20356;-79
2021/01/17 18:25:56;;;;;;;4.75;2.72;;;7.20;96.10;;;;;;4731301;30;20083;-80
2021/01/17 18:28:22;;;;;;;3.80;2.10;;;7.20;96.20;;;;;;4731462;30;20122;-79
2021/01/17 18:30:48;;;;;;;3.63;1.50;;;7.10;96.60;;;;;;4729270;30;20573;-80
2021/01/17 18:33:14;;;;;;;3.15;1.73;;;7.10;96.90;;;;;;4729356;30;20509;-81
2021/01/17 18:35:40;;;;;;;4.10;2.65;;;7.00;97.50;;;;;;4711329;30;20087;-81
2021/01/17 18:38:07;;;;;;;3.70;1.92;;;7.00;98.00;;;;;;4716465;30;20040;-80
2021/01/17 18:40:33;;;;;;;14.05;6.28;;;7.00;98.50;;;;;;4730984;30;20431;-80
2021/01/17 18:42:59;;;;;;;9.38;4.90;;;6.90;98.90;;;;;;4730559;30;20037;-80
2021/01/17 18:45:26;;;;;;;10.77;3.78;;;6.90;98.90;;;;;;4722046;30;20079;-81
2021/01/17 18:47:59;;;;;;;12.05;6.68;;;6.80;99.00;;;;;;4721700;30;20040;-80
2021/01/17 18:50:25;;;;;;;8.82;5.45;;;6.80;99.20;;;;;;4731012;30;20044;-80
2021/01/17 18:52:52;;;;;;;12.30;6.00;;;6.80;99.60;;;;;;4732374;30;20108;-80
2021/01/17 18:55:23;;;;;;;10.32;5.53;;;6.70;99.80;;;;;;4730630;30;20098;-81
2021/01/17 18:57:50;;;;;;;12.32;5.50;;;6.70;99.90;;;;;;4725280;30;20033;-81
2021/01/17 19:00:17;;;;;;;10.80;5.80;;;6.60;99.90;;;;;;4733058;30;20032;-81
2021/01/17 19:02:43;;;;;;;13.30;6.35;;;6.50;99.90;;;;;;4730106;30;20044;-81
2021/01/17 19:05:31;;;;;;;14.35;7.53;;;6.50;99.90;;;;;;4729160;30;20047;-80
2021/01/17 19:08:12;;;;;;;10.70;5.97;;;6.40;99.90;;;;;;4716787;30;20045;-80
2021/01/17 19:10:49;;;;;;;8.57;5.35;;;6.40;99.90;;;;;;4730149;30;20490;-81
2021/01/17 19:13:37;;;;;;;10.70;6.45;;;6.40;99.90;;;;;;4713829;30;20449;-81
2021/01/17 19:16:19;;;;;;;10.88;5.88;;;6.40;99.90;;;;;;4719112;30;20130;-80
2021/01/17 19:18:53;;;;;;;13.00;5.25;;;6.40;99.90;;;;;;4728310;30;20048;-81
2021/01/17 19:21:19;;;;;;;9.90;5.75;;;6.40;99.90;;;;;;4735087;30;20456;-81
2021/01/17 19:23:45;;;;;;;11.30;5.72;;;6.40;99.90;;;;;;4730989;30;20067;-81
2021/01/17 19:26:11;;;;;;;11.70;6.13;;;6.40;99.90;;;;;;4723616;30;20149;-81
2021/01/17 19:28:39;;;;;;;8.98;5.53;;;6.40;99.90;;;;;;4718961;30;20099;-81
2021/01/17 19:31:05;;;;;;;11.45;6.78;;;6.30;99.90;;;;;;4709560;30;21874;-80
2021/01/17 19:33:31;;;;;;;15.70;7.75;;;6.40;99.90;;;;;;4727413;30;20409;-81
2021/01/17 19:35:57;;;;;;;15.10;8.05;;;6.30;99.90;;;;;;4723276;30;20119;-80
2021/01/17 19:38:25;;;;;;;11.07;6.43;;;6.30;99.90;;;;;;4729201;30;20120;-80
2021/01/17 19:40:51;;;;;;;12.13;6.97;;;6.30;99.90;;;;;;4730469;30;20041;-80
2021/01/17 19:43:18;;;;;;;11.45;6.22;;;6.30;99.90;;;;;;4739930;30;20561;-79
2021/01/17 19:45:44;;;;;;;15.05;6.80;;;6.20;99.90;;;;;;4715827;30;20045;-79
2021/01/17 19:48:10;;;;;;;11.90;5.82;;;6.20;99.90;;;;;;4730750;30;20044;-79
2021/01/17 19:50:36;;;;;;;9.48;6.18;;;6.20;99.90;;;;;;4723105;30;20051;-80
2021/01/17 19:53:03;;;;;;;12.57;6.18;;;6.20;99.90;;;;;;4736346;30;20488;-80
2021/01/17 19:55:32;;;;;;;10.57;6.22;;;6.20;99.90;;;;;;4730075;30;20124;-80
2021/01/17 19:57:59;;;;;;;14.70;7.35;;;6.20;99.90;;;;;;4722700;30;20108;-79
2021/01/17 20:00:26;;;;;;;12.73;6.13;;;6.20;99.90;;;;;;4730780;30;20108;-80
2021/01/17 20:02:53;;;;;;;12.88;6.32;;;6.20;99.90;;;;;;4719332;30;20481;-79
2021/01/17 20:05:19;;;;;;;10.95;6.28;;;6.20;99.90;;;;;;4731195;30;20029;-79
2021/01/17 20:07:45;;;;;;;24.23;10.30;;;6.30;99.90;;;;;;4726739;30;20033;-79
2021/01/17 20:10:11;;;;;;;17.63;9.38;;;6.30;99.90;;;;;;4727083;30;20491;-80
2021/01/17 20:12:38;;;;;;;17.15;8.95;;;6.30;99.90;;;;;;4731470;30;20060;-79
2021/01/17 20:15:07;;;;;;;15.55;8.10;;;6.30;99.90;;;;;;4729402;30;20064;-79
2021/01/17 20:17:33;;;;;;;10.13;6.20;;;6.30;99.90;;;;;;4731286;30;20028;-79
2021/01/17 20:19:59;;;;;;;9.05;4.93;;;6.30;99.90;;;;;;4731291;30;20394;-78
2021/01/17 20:22:25;;;;;;;11.48;5.03;;;6.30;99.90;;;;;;4729953;30;20111;-79
2021/01/17 20:24:52;;;;;;;13.85;5.80;;;6.30;99.90;;;;;;4741149;30;20044;-78
2021/01/17 20:27:18;;;;;;;14.85;7.40;;;6.20;99.90;;;;;;4731602;30;20102;-79
2021/01/17 20:29:44;;;;;;;10.57;6.40;;;6.30;99.90;;;;;;4731117;30;20029;-81
2021/01/17 20:32:10;;;;;;;9.95;5.05;;;6.20;99.90;;;;;;4731022;30;20045;-79
2021/01/17 20:34:36;;;;;;;13.13;6.65;;;6.20;99.90;;;;;;4727445;30;20361;-78